sensor_id;sensor_type;location;lat;lon;timestamp;P1;durP1;ratioP1;P2;durP2;ratioP2
5263;SDS011;2654;47.958;13.614;2022-08-14T00:00:12;8.40;;;7.37;;
5263;SDS011;2654;47.958;13.614;2022-08-14T00:02:41;14.37;;;8.20;;
5263;SDS011;2654;47.958;13.614;2022-08-14T00:05:13;7.50;;;6.70;;
5263;SDS011;2654;47.958;13.614;2022-08-14T00:07:42;12.73;;;9.00;;
5263;SDS011;2654;47.958;13.614;2022-08-14T00:10:11;12.63;;;8.90;;
5263;SDS011;2654;47.958;13.614;2022-08-14T00:12:42;13.17;;;10.13;;
5263;SDS011;2654;47.958;13.614;2022-08-14T00:15:13;13.50;;;10.33;;
5263;SDS011;2654;47.958;13.614;2022-08-14T00:17:43;14.63;;;10.33;;
5263;SDS011;2654;47.958;13.614;2022-08-14T00:20:13;12.47;;;9.60;;
5263;SDS011;2654;47.958;13.614;2022-08-14T00:22:41;11.90;;;9.20;;
5263;SDS011;2654;47.958;13.614;2022-08-14T00:25:09;12.50;;;8.80;;
5263;SDS011;2654;47.958;13.614;2022-08-14T00:27:36;12.93;;;10.30;;
5263;SDS011;2654;47.958;13.614;2022-08-14T00:30:04;12.53;;;9.70;;
5263;SDS011;2654;47.958;13.614;2022-08-14T00:32:34;13.63;;;9.87;;
5263;SDS011;2654;47.958;13.614;2022-08-14T00:35:02;19.00;;;10.17;;
5263;SDS011;2654;47.958;13.614;2022-08-14T00:37:31;15.47;;;10.07;;
5263;SDS011;2654;47.958;13.614;2022-08-14T00:39:59;17.53;;;12.10;;
5263;SDS011;2654;47.958;13.614;2022-08-14T00:42:27;14.17;;;10.60;;
5263;SDS011;2654;47.958;13.614;2022-08-14T00:44:55;115.33;;;12.43;;
5263;SDS011;2654;47.958;13.614;2022-08-14T00:47:22;32.90;;;11.67;;
5263;SDS011;2654;47.958;13.614;2022-08-14T00:49:50;60.53;;;12.70;;
5263;SDS011;2654;47.958;13.614;2022-08-14T00:52:20;35.47;;;10.10;;
5263;SDS011;2654;47.958;13.614;2022-08-14T00:54:51;28.47;;;10.77;;
5263;SDS011;2654;47.958;13.614;2022-08-14T00:57:19;54.67;;;10.70;;
5263;SDS011;2654;47.958;13.614;2022-08-14T00:59:47;15.33;;;11.03;;
5263;SDS011;2654;47.958;13.614;2022-08-14T01:02:15;12.80;;;10.60;;
5263;SDS011;2654;47.958;13.614;2022-08-14T01:04:50;13.20;;;10.63;;
5263;SDS011;2654;47.958;13.614;2022-08-14T01:07:19;21.07;;;10.40;;
5263;SDS011;2654;47.958;13.614;2022-08-14T01:09:48;18.80;;;10.40;;
5263;SDS011;2654;47.958;13.614;2022-08-14T01:12:18;14.17;;;9.37;;
5263;SDS011;2654;47.958;13.614;2022-08-14T01:14:47;12.70;;;10.60;;
5263;SDS011;2654;47.958;13.614;2022-08-14T01:17:19;12.27;;;9.50;;
5263;SDS011;2654;47.958;13.614;2022-08-14T01:19:47;13.00;;;9.63;;
5263;SDS011;2654;47.958;13.614;2022-08-14T01:22:34;10.60;;;8.83;;
5263;SDS011;2654;47.958;13.614;2022-08-14T01:25:01;19.87;;;9.40;;
5263;SDS011;2654;47.958;13.614;2022-08-14T01:27:31;14.33;;;9.90;;
5263;SDS011;2654;47.958;13.614;2022-08-14T01:30:00;12.70;;;9.87;;
5263;SDS011;2654;47.958;13.614;2022-08-14T01:32:27;13.60;;;10.90;;
5263;SDS011;2654;47.958;13.614;2022-08-14T01:34:55;13.33;;;10.10;;
5263;SDS011;2654;47.958;13.614;2022-08-14T01:37:22;12.87;;;10.13;;
5263;SDS011;2654;47.958;13.614;2022-08-14T01:39:51;13.40;;;10.40;;
5263;SDS011;2654;47.958;13.614;2022-08-14T01:42:19;15.13;;;11.30;;
5263;SDS011;2654;47.958;13.614;2022-08-14T01:44:46;16.50;;;10.13;;
5263;SDS011;2654;47.958;13.614;2022-08-14T01:47:21;13.23;;;9.97;;
5263;SDS011;2654;47.958;13.614;2022-08-14T01:49:49;13.13;;;10.10;;
5263;SDS011;2654;47.958;13.614;2022-08-14T01:52:18;11.87;;;9.83;;
5263;SDS011;2654;47.958;13.614;2022-08-14T01:54:47;15.40;;;10.10;;
5263;SDS011;2654;47.958;13.614;2022-08-14T01:57:18;12.33;;;9.77;;
5263;SDS011;2654;47.958;13.614;2022-08-14T01:59:46;12.73;;;9.77;;
5263;SDS011;2654;47.958;13.614;2022-08-14T02:02:14;14.20;;;9.90;;
5263;SDS011;2654;47.958;13.614;2022-08-14T02:04:41;12.60;;;10.17;;
5263;SDS011;2654;47.958;13.614;2022-08-14T02:07:09;15.63;;;10.57;;
5263;SDS011;2654;47.958;13.614;2022-08-14T02:09:36;17.03;;;10.53;;
5263;SDS011;2654;47.958;13.614;2022-08-14T02:12:04;15.20;;;11.10;;
5263;SDS011;2654;47.958;13.614;2022-08-14T02:14:35;16.80;;;11.30;;
5263;SDS011;2654;47.958;13.614;2022-08-14T02:17:03;15.17;;;10.40;;
5263;SDS011;2654;47.958;13.614;2022-08-14T02:19:33;14.70;;;10.93;;
5263;SDS011;2654;47.958;13.614;2022-08-14T02:22:01;13.63;;;10.43;;
5263;SDS011;2654;47.958;13.614;2022-08-14T02:24:30;13.93;;;10.70;;
5263;SDS011;2654;47.958;13.614;2022-08-14T02:26:58;15.87;;;10.60;;
5263;SDS011;2654;47.958;13.614;2022-08-14T02:29:28;15.23;;;11.43;;
5263;SDS011;2654;47.958;13.614;2022-08-14T02:31:58;14.60;;;10.90;;
5263;SDS011;2654;47.958;13.614;2022-08-14T02:34:27;13.00;;;10.10;;
5263;SDS011;2654;47.958;13.614;2022-08-14T02:36:57;15.77;;;11.83;;
5263;SDS011;2654;47.958;13.614;2022-08-14T02:39:27;16.07;;;10.40;;
5263;SDS011;2654;47.958;13.614;2022-08-14T02:41:55;14.07;;;10.83;;
5263;SDS011;2654;47.958;13.614;2022-08-14T02:44:23;12.57;;;10.27;;
5263;SDS011;2654;47.958;13.614;2022-08-14T02:46:51;11.30;;;9.67;;
5263;SDS011;2654;47.958;13.614;2022-08-14T02:49:23;11.00;;;9.57;;
5263;SDS011;2654;47.958;13.614;2022-08-14T02:51:54;11.40;;;9.40;;
5263;SDS011;2654;47.958;13.614;2022-08-14T02:54:23;12.53;;;9.63;;
5263;SDS011;2654;47.958;13.614;2022-08-14T02:56:51;10.80;;;8.90;;
5263;SDS011;2654;47.958;13.614;2022-08-14T02:59:19;10.40;;;9.27;;
5263;SDS011;2654;47.958;13.614;2022-08-14T03:01:48;16.10;;;10.40;;
5263;SDS011;2654;47.958;13.614;2022-08-14T03:04:18;13.07;;;9.73;;
5263;SDS011;2654;47.958;13.614;2022-08-14T03:06:47;13.00;;;9.37;;
5263;SDS011;2654;47.958;13.614;2022-08-14T03:09:15;11.70;;;10.00;;
5263;SDS011;2654;47.958;13.614;2022-08-14T03:11:43;11.43;;;10.10;;
5263;SDS011;2654;47.958;13.614;2022-08-14T03:14:11;15.50;;;10.13;;
5263;SDS011;2654;47.958;13.614;2022-08-14T03:16:38;12.00;;;8.77;;
5263;SDS011;2654;47.958;13.614;2022-08-14T03:19:07;10.60;;;8.87;;
5263;SDS011;2654;47.958;13.614;2022-08-14T03:21:35;12.27;;;9.87;;
5263;SDS011;2654;47.958;13.614;2022-08-14T03:24:05;12.23;;;9.60;;
5263;SDS011;2654;47.958;13.614;2022-08-14T03:26:36;10.53;;;8.93;;
5263;SDS011;2654;47.958;13.614;2022-08-14T03:29:05;12.90;;;10.20;;
5263;SDS011;2654;47.958;13.614;2022-08-14T03:31:33;12.60;;;10.27;;
5263;SDS011;2654;47.958;13.614;2022-08-14T03:34:02;13.53;;;10.13;;
5263;SDS011;2654;47.958;13.614;2022-08-14T03:36:30;14.10;;;10.40;;
5263;SDS011;2654;47.958;13.614;2022-08-14T03:38:57;12.97;;;10.50;;
5263;SDS011;2654;47.958;13.614;2022-08-14T03:41:27;14.00;;;10.00;;
5263;SDS011;2654;47.958;13.614;2022-08-14T03:43:56;13.37;;;9.97;;
5263;SDS011;2654;47.958;13.614;2022-08-14T03:46:26;15.63;;;10.10;;
5263;SDS011;2654;47.958;13.614;2022-08-14T03:48:54;12.07;;;9.60;;
5263;SDS011;2654;47.958;13.614;2022-08-14T03:51:22;12.47;;;10.50;;
5263;SDS011;2654;47.958;13.614;2022-08-14T03:53:54;12.33;;;9.70;;
5263;SDS011;2654;47.958;13.614;2022-08-14T03:56:22;13.67;;;10.17;;
5263;SDS011;2654;47.958;13.614;2022-08-14T03:58:53;14.47;;;10.50;;
5263;SDS011;2654;47.958;13.614;2022-08-14T04:01:22;12.47;;;10.07;;
5263;SDS011;2654;47.958;13.614;2022-08-14T04:03:51;15.53;;;11.10;;
5263;SDS011;2654;47.958;13.614;2022-08-14T04:06:19;16.37;;;10.77;;
5263;SDS011;2654;47.958;13.614;2022-08-14T04:08:47;12.90;;;9.93;;
5263;SDS011;2654;47.958;13.614;2022-08-14T04:11:15;14.30;;;10.00;;
5263;SDS011;2654;47.958;13.614;2022-08-14T04:13:43;11.97;;;9.77;;
5263;SDS011;2654;47.958;13.614;2022-08-14T04:16:14;14.40;;;10.00;;
5263;SDS011;2654;47.958;13.614;2022-08-14T04:18:45;15.00;;;10.67;;
5263;SDS011;2654;47.958;13.614;2022-08-14T04:21:15;12.33;;;9.70;;
5263;SDS011;2654;47.958;13.614;2022-08-14T04:23:44;12.27;;;9.60;;
5263;SDS011;2654;47.958;13.614;2022-08-14T04:26:13;20.60;;;10.23;;
5263;SDS011;2654;47.958;13.614;2022-08-14T04:28:43;12.40;;;9.90;;
5263;SDS011;2654;47.958;13.614;2022-08-14T04:31:11;11.23;;;9.07;;
5263;SDS011;2654;47.958;13.614;2022-08-14T04:33:40;22.03;;;11.37;;
5263;SDS011;2654;47.958;13.614;2022-08-14T04:36:08;13.90;;;10.13;;
5263;SDS011;2654;47.958;13.614;2022-08-14T04:38:35;16.53;;;13.03;;
5263;SDS011;2654;47.958;13.614;2022-08-14T04:41:20;20.40;;;15.00;;
5263;SDS011;2654;47.958;13.614;2022-08-14T04:44:13;20.23;;;14.27;;
5263;SDS011;2654;47.958;13.614;2022-08-14T04:46:42;21.70;;;14.60;;
5263;SDS011;2654;47.958;13.614;2022-08-14T04:49:30;16.70;;;12.87;;
5263;SDS011;2654;47.958;13.614;2022-08-14T04:51:57;21.97;;;13.23;;
5263;SDS011;2654;47.958;13.614;2022-08-14T04:54:25;15.00;;;11.70;;
5263;SDS011;2654;47.958;13.614;2022-08-14T04:56:53;15.23;;;11.20;;
5263;SDS011;2654;47.958;13.614;2022-08-14T04:59:21;22.53;;;12.97;;
5263;SDS011;2654;47.958;13.614;2022-08-14T05:01:50;22.93;;;13.90;;
5263;SDS011;2654;47.958;13.614;2022-08-14T05:04:18;19.07;;;12.50;;
5263;SDS011;2654;47.958;13.614;2022-08-14T05:06:47;17.50;;;12.40;;
5263;SDS011;2654;47.958;13.614;2022-08-14T05:09:15;17.37;;;13.43;;
5263;SDS011;2654;47.958;13.614;2022-08-14T05:11:43;20.43;;;14.00;;
5263;SDS011;2654;47.958;13.614;2022-08-14T05:14:11;19.47;;;14.20;;
5263;SDS011;2654;47.958;13.614;2022-08-14T05:16:39;17.73;;;13.50;;
5263;SDS011;2654;47.958;13.614;2022-08-14T05:19:07;16.97;;;13.13;;
5263;SDS011;2654;47.958;13.614;2022-08-14T05:21:38;30.77;;;13.67;;
5263;SDS011;2654;47.958;13.614;2022-08-14T05:24:06;19.30;;;13.53;;
5263;SDS011;2654;47.958;13.614;2022-08-14T05:26:35;18.93;;;13.23;;
5263;SDS011;2654;47.958;13.614;2022-08-14T05:29:10;18.13;;;12.67;;
5263;SDS011;2654;47.958;13.614;2022-08-14T05:31:38;15.77;;;12.50;;
5263;SDS011;2654;47.958;13.614;2022-08-14T05:34:05;14.00;;;10.90;;
5263;SDS011;2654;47.958;13.614;2022-08-14T05:36:35;13.07;;;10.77;;
5263;SDS011;2654;47.958;13.614;2022-08-14T05:39:03;13.27;;;10.10;;
5263;SDS011;2654;47.958;13.614;2022-08-14T05:41:31;14.13;;;11.07;;
5263;SDS011;2654;47.958;13.614;2022-08-14T05:43:59;15.70;;;11.93;;
5263;SDS011;2654;47.958;13.614;2022-08-14T05:46:26;19.63;;;12.17;;
5263;SDS011;2654;47.958;13.614;2022-08-14T05:48:54;14.27;;;11.53;;
5263;SDS011;2654;47.958;13.614;2022-08-14T05:51:24;18.77;;;11.87;;
5263;SDS011;2654;47.958;13.614;2022-08-14T05:53:52;15.20;;;11.90;;
5263;SDS011;2654;47.958;13.614;2022-08-14T05:56:21;18.53;;;13.27;;
5263;SDS011;2654;47.958;13.614;2022-08-14T05:58:50;20.67;;;12.23;;
5263;SDS011;2654;47.958;13.614;2022-08-14T06:01:17;21.30;;;12.30;;
5263;SDS011;2654;47.958;13.614;2022-08-14T06:03:45;14.23;;;10.43;;
5263;SDS011;2654;47.958;13.614;2022-08-14T06:06:12;12.40;;;9.50;;
5263;SDS011;2654;47.958;13.614;2022-08-14T06:08:41;28.33;;;10.13;;
5263;SDS011;2654;47.958;13.614;2022-08-14T06:11:09;16.40;;;10.20;;
5263;SDS011;2654;47.958;13.614;2022-08-14T06:13:37;11.50;;;10.27;;
5263;SDS011;2654;47.958;13.614;2022-08-14T06:16:05;13.97;;;10.27;;
5263;SDS011;2654;47.958;13.614;2022-08-14T06:18:33;16.00;;;9.77;;
5263;SDS011;2654;47.958;13.614;2022-08-14T06:21:01;13.93;;;9.27;;
5263;SDS011;2654;47.958;13.614;2022-08-14T06:23:28;10.80;;;8.93;;
5263;SDS011;2654;47.958;13.614;2022-08-14T06:25:57;14.03;;;8.97;;
5263;SDS011;2654;47.958;13.614;2022-08-14T06:28:25;9.03;;;8.13;;
5263;SDS011;2654;47.958;13.614;2022-08-14T06:30:53;10.70;;;8.50;;
5263;SDS011;2654;47.958;13.614;2022-08-14T06:33:21;8.33;;;7.30;;
5263;SDS011;2654;47.958;13.614;2022-08-14T06:35:49;15.57;;;7.97;;
5263;SDS011;2654;47.958;13.614;2022-08-14T06:38:17;11.00;;;7.90;;
5263;SDS011;2654;47.958;13.614;2022-08-14T06:40:46;8.23;;;7.20;;
5263;SDS011;2654;47.958;13.614;2022-08-14T06:43:17;8.43;;;7.53;;
5263;SDS011;2654;47.958;13.614;2022-08-14T06:45:46;60.37;;;10.33;;
5263;SDS011;2654;47.958;13.614;2022-08-14T06:48:15;9.37;;;7.50;;
5263;SDS011;2654;47.958;13.614;2022-08-14T06:50:44;8.73;;;7.70;;
5263;SDS011;2654;47.958;13.614;2022-08-14T06:53:12;8.90;;;8.00;;
5263;SDS011;2654;47.958;13.614;2022-08-14T06:55:40;9.53;;;8.53;;
5263;SDS011;2654;47.958;13.614;2022-08-14T06:58:10;9.53;;;7.90;;
5263;SDS011;2654;47.958;13.614;2022-08-14T07:00:40;10.30;;;8.23;;
5263;SDS011;2654;47.958;13.614;2022-08-14T07:03:29;9.47;;;7.63;;
5263;SDS011;2654;47.958;13.614;2022-08-14T07:06:14;9.40;;;7.80;;
5263;SDS011;2654;47.958;13.614;2022-08-14T07:08:42;9.20;;;7.70;;
5263;SDS011;2654;47.958;13.614;2022-08-14T07:11:10;11.33;;;9.30;;
5263;SDS011;2654;47.958;13.614;2022-08-14T07:13:38;14.93;;;9.83;;
5263;SDS011;2654;47.958;13.614;2022-08-14T07:16:07;13.00;;;8.60;;
5263;SDS011;2654;47.958;13.614;2022-08-14T07:18:37;11.23;;;9.50;;
5263;SDS011;2654;47.958;13.614;2022-08-14T07:21:06;15.13;;;9.47;;
5263;SDS011;2654;47.958;13.614;2022-08-14T07:23:34;11.17;;;9.20;;
5263;SDS011;2654;47.958;13.614;2022-08-14T07:26:02;11.60;;;8.70;;
5263;SDS011;2654;47.958;13.614;2022-08-14T07:28:31;16.10;;;9.30;;
5263;SDS011;2654;47.958;13.614;2022-08-14T07:31:00;11.97;;;9.13;;
5263;SDS011;2654;47.958;13.614;2022-08-14T07:33:30;19.93;;;11.37;;
5263;SDS011;2654;47.958;13.614;2022-08-14T07:36:01;18.87;;;12.13;;
5263;SDS011;2654;47.958;13.614;2022-08-14T07:38:30;16.10;;;12.63;;
5263;SDS011;2654;47.958;13.614;2022-08-14T07:40:58;12.50;;;10.10;;
5263;SDS011;2654;47.958;13.614;2022-08-14T07:43:25;12.43;;;9.47;;
5263;SDS011;2654;47.958;13.614;2022-08-14T07:45:53;13.80;;;8.70;;
5263;SDS011;2654;47.958;13.614;2022-08-14T07:48:21;10.73;;;8.73;;
5263;SDS011;2654;47.958;13.614;2022-08-14T07:50:50;15.10;;;8.70;;
5263;SDS011;2654;47.958;13.614;2022-08-14T07:53:17;11.67;;;8.87;;
5263;SDS011;2654;47.958;13.614;2022-08-14T07:55:46;9.20;;;8.00;;
5263;SDS011;2654;47.958;13.614;2022-08-14T07:58:14;10.27;;;7.70;;
5263;SDS011;2654;47.958;13.614;2022-08-14T08:00:42;10.93;;;8.23;;
5263;SDS011;2654;47.958;13.614;2022-08-14T08:03:09;9.80;;;8.20;;
5263;SDS011;2654;47.958;13.614;2022-08-14T08:05:39;13.13;;;8.20;;
5263;SDS011;2654;47.958;13.614;2022-08-14T08:08:08;11.80;;;8.07;;
5263;SDS011;2654;47.958;13.614;2022-08-14T08:10:37;16.60;;;8.40;;
5263;SDS011;2654;47.958;13.614;2022-08-14T08:13:07;18.10;;;8.60;;
5263;SDS011;2654;47.958;13.614;2022-08-14T08:15:37;11.87;;;8.83;;
5263;SDS011;2654;47.958;13.614;2022-08-14T08:18:06;9.40;;;7.70;;
5263;SDS011;2654;47.958;13.614;2022-08-14T08:20:37;10.77;;;8.30;;
5263;SDS011;2654;47.958;13.614;2022-08-14T08:23:06;15.87;;;9.97;;
5263;SDS011;2654;47.958;13.614;2022-08-14T08:25:36;12.90;;;9.90;;
5263;SDS011;2654;47.958;13.614;2022-08-14T08:28:05;11.20;;;8.80;;
5263;SDS011;2654;47.958;13.614;2022-08-14T08:30:35;14.50;;;11.30;;
5263;SDS011;2654;47.958;13.614;2022-08-14T08:33:04;18.63;;;10.00;;
5263;SDS011;2654;47.958;13.614;2022-08-14T08:35:33;17.33;;;10.70;;
5263;SDS011;2654;47.958;13.614;2022-08-14T08:38:04;11.70;;;8.97;;
5263;SDS011;2654;47.958;13.614;2022-08-14T08:40:37;12.10;;;9.27;;
5263;SDS011;2654;47.958;13.614;2022-08-14T08:43:06;12.50;;;8.90;;
5263;SDS011;2654;47.958;13.614;2022-08-14T08:45:42;14.10;;;9.70;;
5263;SDS011;2654;47.958;13.614;2022-08-14T08:48:11;11.90;;;9.80;;
5263;SDS011;2654;47.958;13.614;2022-08-14T08:50:38;14.10;;;10.53;;
5263;SDS011;2654;47.958;13.614;2022-08-14T08:53:08;17.23;;;10.80;;
5263;SDS011;2654;47.958;13.614;2022-08-14T08:55:37;13.60;;;10.73;;
5263;SDS011;2654;47.958;13.614;2022-08-14T08:58:08;13.60;;;10.00;;
5263;SDS011;2654;47.958;13.614;2022-08-14T09:00:37;12.57;;;9.20;;
5263;SDS011;2654;47.958;13.614;2022-08-14T09:03:07;17.00;;;9.70;;
5263;SDS011;2654;47.958;13.614;2022-08-14T09:05:36;13.93;;;9.40;;
5263;SDS011;2654;47.958;13.614;2022-08-14T09:08:20;14.13;;;9.83;;
5263;SDS011;2654;47.958;13.614;2022-08-14T09:10:51;13.17;;;9.73;;
5263;SDS011;2654;47.958;13.614;2022-08-14T09:13:19;11.83;;;8.60;;
5263;SDS011;2654;47.958;13.614;2022-08-14T09:15:50;12.50;;;9.50;;
5263;SDS011;2654;47.958;13.614;2022-08-14T09:18:19;10.90;;;9.00;;
5263;SDS011;2654;47.958;13.614;2022-08-14T09:20:48;12.70;;;9.60;;
5263;SDS011;2654;47.958;13.614;2022-08-14T09:23:17;13.23;;;9.37;;
5263;SDS011;2654;47.958;13.614;2022-08-14T09:25:49;13.00;;;10.00;;
5263;SDS011;2654;47.958;13.614;2022-08-14T09:28:19;10.93;;;8.30;;
5263;SDS011;2654;47.958;13.614;2022-08-14T09:30:48;17.50;;;9.17;;
5263;SDS011;2654;47.958;13.614;2022-08-14T09:33:25;10.63;;;8.93;;
5263;SDS011;2654;47.958;13.614;2022-08-14T09:39:04;12.00;;;8.60;;
5263;SDS011;2654;47.958;13.614;2022-08-14T09:41:45;9.97;;;8.97;;
5263;SDS011;2654;47.958;13.614;2022-08-14T09:44:27;12.07;;;8.90;;
5263;SDS011;2654;47.958;13.614;2022-08-14T09:47:07;12.73;;;9.07;;
5263;SDS011;2654;47.958;13.614;2022-08-14T09:49:35;12.30;;;7.60;;
5263;SDS011;2654;47.958;13.614;2022-08-14T09:52:05;10.10;;;8.23;;
5263;SDS011;2654;47.958;13.614;2022-08-14T09:54:35;11.40;;;9.03;;
5263;SDS011;2654;47.958;13.614;2022-08-14T09:57:05;10.53;;;8.17;;
5263;SDS011;2654;47.958;13.614;2022-08-14T09:59:41;11.53;;;8.37;;
5263;SDS011;2654;47.958;13.614;2022-08-14T10:02:23;10.50;;;8.70;;
5263;SDS011;2654;47.958;13.614;2022-08-14T10:04:58;9.60;;;7.80;;
5263;SDS011;2654;47.958;13.614;2022-08-14T10:07:31;12.27;;;8.57;;
5263;SDS011;2654;47.958;13.614;2022-08-14T10:10:00;9.27;;;8.00;;
5263;SDS011;2654;47.958;13.614;2022-08-14T10:12:43;11.43;;;8.77;;
5263;SDS011;2654;47.958;13.614;2022-08-14T10:15:15;11.00;;;7.40;;
5263;SDS011;2654;47.958;13.614;2022-08-14T10:17:44;10.20;;;8.17;;
5263;SDS011;2654;47.958;13.614;2022-08-14T10:20:13;10.37;;;7.40;;
5263;SDS011;2654;47.958;13.614;2022-08-14T10:22:45;9.40;;;7.17;;
5263;SDS011;2654;47.958;13.614;2022-08-14T10:25:14;9.30;;;8.07;;
5263;SDS011;2654;47.958;13.614;2022-08-14T10:27:44;8.83;;;6.90;;
5263;SDS011;2654;47.958;13.614;2022-08-14T10:30:22;10.43;;;6.40;;
5263;SDS011;2654;47.958;13.614;2022-08-14T10:32:59;10.40;;;7.47;;
5263;SDS011;2654;47.958;13.614;2022-08-14T10:35:26;10.00;;;7.60;;
5263;SDS011;2654;47.958;13.614;2022-08-14T10:38:05;10.00;;;7.83;;
5263;SDS011;2654;47.958;13.614;2022-08-14T10:40:33;10.53;;;8.30;;
5263;SDS011;2654;47.958;13.614;2022-08-14T10:43:02;9.27;;;7.73;;
5263;SDS011;2654;47.958;13.614;2022-08-14T10:45:50;10.20;;;7.83;;
5263;SDS011;2654;47.958;13.614;2022-08-14T10:48:19;14.20;;;8.10;;
5263;SDS011;2654;47.958;13.614;2022-08-14T10:50:46;12.13;;;8.30;;
5263;SDS011;2654;47.958;13.614;2022-08-14T10:53:26;10.00;;;8.10;;
5263;SDS011;2654;47.958;13.614;2022-08-14T10:55:57;9.80;;;8.50;;
5263;SDS011;2654;47.958;13.614;2022-08-14T10:58:27;9.37;;;8.30;;
5263;SDS011;2654;47.958;13.614;2022-08-14T11:00:57;16.63;;;8.27;;
5263;SDS011;2654;47.958;13.614;2022-08-14T11:03:39;9.30;;;8.00;;
5263;SDS011;2654;47.958;13.614;2022-08-14T11:06:14;12.33;;;9.30;;
5263;SDS011;2654;47.958;13.614;2022-08-14T11:08:44;13.60;;;8.80;;
5263;SDS011;2654;47.958;13.614;2022-08-14T11:11:13;9.53;;;7.93;;
5263;SDS011;2654;47.958;13.614;2022-08-14T11:13:43;11.20;;;8.73;;
5263;SDS011;2654;47.958;13.614;2022-08-14T11:16:11;12.80;;;8.70;;
5263;SDS011;2654;47.958;13.614;2022-08-14T11:18:42;12.17;;;7.60;;
5263;SDS011;2654;47.958;13.614;2022-08-14T11:21:13;10.93;;;8.37;;
5263;SDS011;2654;47.958;13.614;2022-08-14T11:23:43;9.47;;;8.00;;
5263;SDS011;2654;47.958;13.614;2022-08-14T11:26:13;12.23;;;9.17;;
5263;SDS011;2654;47.958;13.614;2022-08-14T11:28:47;10.10;;;8.70;;
5263;SDS011;2654;47.958;13.614;2022-08-14T11:31:17;12.10;;;8.13;;
5263;SDS011;2654;47.958;13.614;2022-08-14T11:33:47;13.20;;;8.67;;
5263;SDS011;2654;47.958;13.614;2022-08-14T11:36:21;15.30;;;7.93;;
5263;SDS011;2654;47.958;13.614;2022-08-14T11:38:52;9.40;;;7.97;;
5263;SDS011;2654;47.958;13.614;2022-08-14T11:41:22;9.53;;;8.13;;
5263;SDS011;2654;47.958;13.614;2022-08-14T11:43:52;10.47;;;8.10;;
5263;SDS011;2654;47.958;13.614;2022-08-14T11:46:20;11.40;;;8.47;;
5263;SDS011;2654;47.958;13.614;2022-08-14T11:48:48;10.40;;;8.33;;
5263;SDS011;2654;47.958;13.614;2022-08-14T11:51:17;10.67;;;8.60;;
5263;SDS011;2654;47.958;13.614;2022-08-14T11:53:51;11.80;;;8.53;;
5263;SDS011;2654;47.958;13.614;2022-08-14T11:56:20;9.43;;;7.97;;
5263;SDS011;2654;47.958;13.614;2022-08-14T11:58:50;11.13;;;8.17;;
5263;SDS011;2654;47.958;13.614;2022-08-14T12:01:24;11.93;;;7.33;;
5263;SDS011;2654;47.958;13.614;2022-08-14T12:03:53;9.70;;;8.07;;
5263;SDS011;2654;47.958;13.614;2022-08-14T12:06:23;8.80;;;7.30;;
5263;SDS011;2654;47.958;13.614;2022-08-14T12:08:54;9.90;;;7.97;;
5263;SDS011;2654;47.958;13.614;2022-08-14T12:11:22;9.30;;;7.67;;
5263;SDS011;2654;47.958;13.614;2022-08-14T12:13:50;9.90;;;7.77;;
5263;SDS011;2654;47.958;13.614;2022-08-14T12:16:17;11.87;;;8.33;;
5263;SDS011;2654;47.958;13.614;2022-08-14T12:18:47;12.97;;;8.70;;
5263;SDS011;2654;47.958;13.614;2022-08-14T12:21:16;13.70;;;8.23;;
5263;SDS011;2654;47.958;13.614;2022-08-14T12:23:44;8.90;;;7.47;;
5263;SDS011;2654;47.958;13.614;2022-08-14T12:26:13;8.73;;;7.83;;
5263;SDS011;2654;47.958;13.614;2022-08-14T12:28:47;9.37;;;8.00;;
5263;SDS011;2654;47.958;13.614;2022-08-14T12:31:16;9.67;;;7.67;;
5263;SDS011;2654;47.958;13.614;2022-08-14T12:33:56;14.93;;;8.10;;
5263;SDS011;2654;47.958;13.614;2022-08-14T12:36:24;11.00;;;8.80;;
5263;SDS011;2654;47.958;13.614;2022-08-14T12:38:54;9.93;;;8.30;;
5263;SDS011;2654;47.958;13.614;2022-08-14T12:41:23;11.40;;;7.97;;
5263;SDS011;2654;47.958;13.614;2022-08-14T12:43:52;14.13;;;7.93;;
5263;SDS011;2654;47.958;13.614;2022-08-14T12:46:26;9.37;;;7.90;;
5263;SDS011;2654;47.958;13.614;2022-08-14T12:48:57;11.30;;;8.07;;
5263;SDS011;2654;47.958;13.614;2022-08-14T12:51:30;9.23;;;8.33;;
5263;SDS011;2654;47.958;13.614;2022-08-14T12:53:58;10.93;;;7.60;;
5263;SDS011;2654;47.958;13.614;2022-08-14T12:56:26;11.63;;;8.07;;
5263;SDS011;2654;47.958;13.614;2022-08-14T12:58:55;9.00;;;7.97;;
5263;SDS011;2654;47.958;13.614;2022-08-14T13:01:24;11.90;;;8.10;;
5263;SDS011;2654;47.958;13.614;2022-08-14T13:04:03;11.20;;;8.20;;
5263;SDS011;2654;47.958;13.614;2022-08-14T13:06:33;8.40;;;7.50;;
5263;SDS011;2654;47.958;13.614;2022-08-14T13:09:01;13.87;;;8.00;;
5263;SDS011;2654;47.958;13.614;2022-08-14T13:11:31;9.33;;;7.57;;
5263;SDS011;2654;47.958;13.614;2022-08-14T13:14:04;10.00;;;7.77;;
5263;SDS011;2654;47.958;13.614;2022-08-14T13:16:31;12.90;;;7.90;;
5263;SDS011;2654;47.958;13.614;2022-08-14T13:19:00;9.43;;;8.43;;
5263;SDS011;2654;47.958;13.614;2022-08-14T13:21:29;10.17;;;8.43;;
5263;SDS011;2654;47.958;13.614;2022-08-14T13:23:57;8.67;;;7.37;;
5263;SDS011;2654;47.958;13.614;2022-08-14T13:26:26;8.37;;;7.33;;
5263;SDS011;2654;47.958;13.614;2022-08-14T13:28:53;17.80;;;8.00;;
5263;SDS011;2654;47.958;13.614;2022-08-14T13:31:22;9.20;;;8.07;;
5263;SDS011;2654;47.958;13.614;2022-08-14T13:33:52;9.07;;;7.97;;
5263;SDS011;2654;47.958;13.614;2022-08-14T13:36:21;11.27;;;7.77;;
5263;SDS011;2654;47.958;13.614;2022-08-14T13:38:54;10.60;;;8.30;;
5263;SDS011;2654;47.958;13.614;2022-08-14T13:41:22;8.60;;;7.70;;
5263;SDS011;2654;47.958;13.614;2022-08-14T13:43:52;10.87;;;7.27;;
5263;SDS011;2654;47.958;13.614;2022-08-14T13:46:21;9.40;;;7.37;;
5263;SDS011;2654;47.958;13.614;2022-08-14T13:48:49;12.70;;;7.83;;
5263;SDS011;2654;47.958;13.614;2022-08-14T13:51:17;8.90;;;7.87;;
5263;SDS011;2654;47.958;13.614;2022-08-14T13:53:50;9.60;;;7.70;;
5263;SDS011;2654;47.958;13.614;2022-08-14T13:56:24;8.60;;;7.60;;
5263;SDS011;2654;47.958;13.614;2022-08-14T13:58:56;10.57;;;7.77;;
5263;SDS011;2654;47.958;13.614;2022-08-14T14:01:25;9.20;;;7.37;;
5263;SDS011;2654;47.958;13.614;2022-08-14T14:03:54;10.40;;;7.87;;
5263;SDS011;2654;47.958;13.614;2022-08-14T14:06:23;8.50;;;7.60;;
5263;SDS011;2654;47.958;13.614;2022-08-14T14:08:52;9.50;;;7.20;;
5263;SDS011;2654;47.958;13.614;2022-08-14T14:11:21;13.47;;;7.77;;
5263;SDS011;2654;47.958;13.614;2022-08-14T14:13:51;12.43;;;7.33;;
5263;SDS011;2654;47.958;13.614;2022-08-14T14:16:19;8.27;;;7.47;;
5263;SDS011;2654;47.958;13.614;2022-08-14T14:18:48;10.50;;;7.47;;
5263;SDS011;2654;47.958;13.614;2022-08-14T14:21:20;8.50;;;7.63;;
5263;SDS011;2654;47.958;13.614;2022-08-14T14:23:50;8.30;;;7.40;;
5263;SDS011;2654;47.958;13.614;2022-08-14T14:26:19;10.80;;;8.13;;
5263;SDS011;2654;47.958;13.614;2022-08-14T14:28:49;9.83;;;7.53;;
5263;SDS011;2654;47.958;13.614;2022-08-14T14:31:22;8.30;;;6.97;;
5263;SDS011;2654;47.958;13.614;2022-08-14T14:33:55;11.30;;;7.33;;
5263;SDS011;2654;47.958;13.614;2022-08-14T14:36:25;8.57;;;7.30;;
5263;SDS011;2654;47.958;13.614;2022-08-14T14:38:55;9.03;;;8.13;;
5263;SDS011;2654;47.958;13.614;2022-08-14T14:41:26;10.30;;;7.60;;
5263;SDS011;2654;47.958;13.614;2022-08-14T14:43:56;10.00;;;7.40;;
5263;SDS011;2654;47.958;13.614;2022-08-14T14:46:24;8.53;;;7.10;;
5263;SDS011;2654;47.958;13.614;2022-08-14T14:48:57;8.33;;;7.43;;
5263;SDS011;2654;47.958;13.614;2022-08-14T14:51:25;8.40;;;7.50;;
5263;SDS011;2654;47.958;13.614;2022-08-14T14:53:53;9.37;;;7.70;;
5263;SDS011;2654;47.958;13.614;2022-08-14T14:56:21;8.40;;;7.50;;
5263;SDS011;2654;47.958;13.614;2022-08-14T14:58:49;9.20;;;6.73;;
5263;SDS011;2654;47.958;13.614;2022-08-14T15:01:18;8.63;;;7.57;;
5263;SDS011;2654;47.958;13.614;2022-08-14T15:03:48;9.20;;;7.27;;